Nashville, TN (JWN)

Redbird FMX


Given the close proximity to downtown Nashville, Tennessee, John Tune (JWN) is a great place for the general aviation enthusiast or for someone learning how to fly. Wings of Eagles Aviation’s office is located in Hangar 1, and is accessible from the road or the ramp. The FBO is open 24 hours a day 7 days a week so there will always be someone available for help or fuel.

Address:
210 Tune Airport Dr.
Nashville, TN 37209

Phone: (615) 979-9222

Business Hours:
Monday-Sunday 7a-10p

Wings JWN

NOAA Weather

Nashville, TN

Last Updated on May 23 2017, 12:53 pm CDT

Current Conditions: Mostly Cloudy

NOAA Icon

Temp: 78°F

Wind: Variable at 3mph

Humidity: 50%

Dewpoint: 57.9°F

Your 5-Day Forecast at a Glance

Available data for KBNA from the past 2 hours
NASHVILLE, TN
Metar
KBNA 231753Z VRB03KT 10SM SCT041 SCT060 BKN200 BKN250 26/14 A2972 RMK AO2 SLP058 T02560144 10256 20178 58021

17:53 UTC

Wind: ° 3kt

Visibility: 10 SM

Sky: SCT 4100 ft

Temp: 26 deg C / 78.8 deg F

Dewpoint: 14 deg C / 57.2 deg F

Pressure: 29.72 inHg

TAF
TAF KBNA 231727Z 2318/2418 23003KT P6SM SCT035 BKN090 FM240900 22002KT P6SM VCSH BKN040 FM241100 21004KT 5SM -SHRA OVC020
Pireps (2)
KBNA UA /OV BNA180007/TM 1728/FL037/TP E175/SK BKN037-TOPUNKN
LOZ UA /OV LVT/TM 1705/FL350/TP LGT-MOD